Time;durP1;ratioP1;P1;durP2;ratioP2;P2;SDS_P1;SDS_P2;PMS_P1;PMS_P2;Temp;Humidity;BMP_temperature;BMP_pressure;BME280_temperature;BME280_humidity;BME280_pressure;Samples;Min_cycle;Max_cycle;Signal;HPM_P1;HPM_P2
2021/07/11 00:02:05;;;;;;;5.60;4.50;;;20.40;64.40;;;;;;5010651;28;20061;-89
2021/07/11 00:04:31;;;;;;;6.65;5.07;;;20.40;64.50;;;;;;5011446;28;20041;-88
2021/07/11 00:06:56;;;;;;;5.55;4.22;;;20.40;64.70;;;;;;5011888;28;20056;-89
2021/07/11 00:09:22;;;;;;;6.25;5.15;;;20.40;64.70;;;;;;5012124;28;20022;-88
2021/07/11 00:11:47;;;;;;;7.15;5.50;;;20.40;64.90;;;;;;5005040;28;20081;-88
2021/07/11 00:14:13;;;;;;;6.97;5.10;;;20.40;65.90;;;;;;5001614;28;20061;-88
2021/07/11 00:16:38;;;;;;;5.40;4.40;;;20.40;65.20;;;;;;4999248;28;20457;-88
2021/07/11 00:19:04;;;;;;;5.20;4.47;;;20.40;65.20;;;;;;4992182;28;20063;-88
2021/07/11 00:21:30;;;;;;;7.05;5.63;;;20.30;65.20;;;;;;4995334;28;20021;-89
2021/07/11 00:23:55;;;;;;;6.55;5.25;;;20.30;65.40;;;;;;5011538;28;20500;-88
2021/07/11 00:26:21;;;;;;;6.78;5.32;;;20.30;65.60;;;;;;5011695;28;20363;-87
2021/07/11 00:28:47;;;;;;;6.43;5.00;;;20.30;65.80;;;;;;4999116;28;20421;-87
2021/07/11 00:31:13;;;;;;;7.25;5.50;;;20.30;65.90;;;;;;4998319;28;20053;-88
2021/07/11 00:33:39;;;;;;;6.97;4.95;;;20.20;66.10;;;;;;5011468;28;20037;-89
2021/07/11 00:36:05;;;;;;;5.88;5.07;;;20.30;66.20;;;;;;5011692;28;20018;-88
2021/07/11 00:38:31;;;;;;;6.30;4.90;;;20.30;66.20;;;;;;5011654;28;20022;-87
2021/07/11 00:40:57;;;;;;;6.10;4.82;;;20.30;66.30;;;;;;5007915;28;20080;-89
2021/07/11 00:43:23;;;;;;;6.40;4.93;;;20.30;66.50;;;;;;4991331;28;20037;-87
2021/07/11 00:45:48;;;;;;;5.78;4.78;;;20.30;66.50;;;;;;4991929;28;20113;-88
2021/07/11 00:48:17;;;;;;;6.10;4.68;;;20.30;66.40;;;;;;4991851;28;20022;-88
2021/07/11 00:50:43;;;;;;;5.78;4.80;;;20.40;66.40;;;;;;4991800;28;20022;-87
2021/07/11 00:53:09;;;;;;;5.68;4.60;;;20.40;66.40;;;;;;4990952;28;20712;-87
2021/07/11 00:55:36;;;;;;;4.68;3.90;;;20.40;66.20;;;;;;5006456;28;20053;-88
2021/07/11 00:58:02;;;;;;;5.63;4.45;;;20.40;66.10;;;;;;5010695;28;20026;-87
2021/07/11 01:00:27;;;;;;;5.35;4.63;;;20.50;66.20;;;;;;5009955;28;20073;-87
2021/07/11 01:03:21;;;;;;;5.15;4.43;;;20.50;66.20;;;;;;4990812;28;20158;-88
2021/07/11 01:05:47;;;;;;;5.90;4.72;;;20.50;66.30;;;;;;5010157;28;20031;-86
2021/07/11 01:08:38;;;;;;;6.60;4.50;;;20.40;66.30;;;;;;4995138;28;20053;-88
2021/07/11 01:11:05;;;;;;;5.95;4.38;;;20.40;66.50;;;;;;4994901;28;20034;-89
2021/07/11 01:13:33;;;;;;;5.97;4.15;;;20.40;66.60;;;;;;5006032;28;20049;-88
2021/07/11 01:16:12;;;;;;;4.80;3.90;;;20.50;66.80;;;;;;4994628;28;20026;-88
2021/07/11 01:18:39;;;;;;;5.60;4.75;;;20.50;66.80;;;;;;4994824;28;20053;-88
2021/07/11 01:21:26;;;;;;;6.18;4.80;;;20.40;66.80;;;;;;4993687;28;20109;-89
2021/07/11 01:24:16;;;;;;;5.88;4.35;;;20.50;66.80;;;;;;4995059;28;20057;-88
2021/07/11 01:26:46;;;;;;;6.13;4.50;;;20.50;66.70;;;;;;4994700;28;20018;-88
2021/07/11 01:29:13;;;;;;;5.45;4.15;;;20.60;66.60;;;;;;4995373;28;20057;-90
2021/07/11 01:31:39;;;;;;;5.75;4.70;;;20.50;66.50;;;;;;5000547;28;20014;-90
2021/07/11 01:34:05;;;;;;;6.10;4.78;;;20.50;66.60;;;;;;5014183;28;20513;-90
2021/07/11 01:36:31;;;;;;;5.65;4.78;;;20.50;66.60;;;;;;5013858;28;20099;-91
2021/07/11 01:38:58;;;;;;;5.47;4.18;;;20.50;66.60;;;;;;4994831;28;20477;-90
2021/07/11 01:41:27;;;;;;;5.35;4.60;;;20.50;66.60;;;;;;4998104;28;20076;-90
2021/07/11 01:43:53;;;;;;;5.65;4.85;;;20.50;66.50;;;;;;4999334;28;20030;-90
2021/07/11 01:46:20;;;;;;;8.25;6.47;;;20.50;66.50;;;;;;4993756;28;20085;-90
2021/07/11 01:48:46;;;;;;;6.95;5.35;;;20.40;67.40;;;;;;4994839;28;20069;-90
2021/07/11 01:51:12;;;;;;;5.10;4.10;;;20.30;67.70;;;;;;4996583;28;20117;-89
2021/07/11 01:53:45;;;;;;;5.68;4.47;;;20.30;67.80;;;;;;5013692;28;20100;-88
2021/07/11 01:56:11;;;;;;;4.97;4.47;;;20.30;67.80;;;;;;5014682;28;20029;-88
2021/07/11 01:58:39;;;;;;;6.22;5.05;;;20.30;67.90;;;;;;5014552;28;20025;-89
2021/07/11 02:01:07;;;;;;;4.97;4.00;;;20.20;68.00;;;;;;5014042;28;20029;-87
2021/07/11 02:03:34;;;;;;;5.80;4.75;;;20.20;68.10;;;;;;5010054;28;20489;-89
2021/07/11 02:06:00;;;;;;;5.65;4.68;;;20.30;68.20;;;;;;4994403;28;20105;-88
2021/07/11 02:08:25;;;;;;;5.47;4.07;;;20.30;68.20;;;;;;5011026;28;20125;-89
2021/07/11 02:10:54;;;;;;;5.80;4.38;;;20.30;68.10;;;;;;5014111;28;20026;-90
2021/07/11 02:13:48;;;;;;;5.10;4.20;;;20.40;68.10;;;;;;5012270;28;20029;-88
2021/07/11 02:16:27;;;;;;;5.43;4.32;;;20.40;68.00;;;;;;4992871;28;20023;-88
2021/07/11 02:18:56;;;;;;;5.95;4.75;;;20.40;68.10;;;;;;4992791;28;20033;-89
2021/07/11 02:21:22;;;;;;;5.95;4.88;;;20.40;68.00;;;;;;4993794;28;20027;-89
2021/07/11 02:23:49;;;;;;;6.45;5.00;;;20.40;68.00;;;;;;4994384;28;20513;-89
2021/07/11 02:26:15;;;;;;;6.10;4.97;;;20.40;68.00;;;;;;5002269;28;20038;-88
2021/07/11 02:28:41;;;;;;;6.70;5.28;;;20.30;68.20;;;;;;5014210;28;20037;-89
2021/07/11 02:31:11;;;;;;;7.25;5.78;;;20.30;68.20;;;;;;5015928;28;20022;-90
2021/07/11 02:33:38;;;;;;;5.72;4.60;;;20.30;68.40;;;;;;4998102;28;20036;-90
2021/07/11 02:36:13;;;;;;;5.70;4.72;;;20.30;68.50;;;;;;5012962;28;20038;-90
2021/07/11 02:38:47;;;;;;;9.07;7.50;;;20.20;68.90;;;;;;5003580;28;20022;-90
2021/07/11 02:41:15;;;;;;;10.15;7.68;;;20.20;69.30;;;;;;4994728;28;20113;-90
2021/07/11 02:43:42;;;;;;;7.53;6.25;;;20.10;69.70;;;;;;4994739;28;20038;-90
2021/07/11 02:46:09;;;;;;;7.30;6.10;;;20.00;70.00;;;;;;4993305;28;20389;-89
2021/07/11 02:48:40;;;;;;;6.53;5.53;;;20.00;70.10;;;;;;4994485;28;20026;-89
2021/07/11 02:51:07;;;;;;;7.30;6.43;;;20.00;70.40;;;;;;5008407;28;20025;-89
2021/07/11 02:53:33;;;;;;;7.85;6.82;;;19.90;70.60;;;;;;4993644;28;20540;-89
2021/07/11 02:56:00;;;;;;;6.88;5.78;;;19.90;71.10;;;;;;4994264;28;20027;-89
2021/07/11 02:58:28;;;;;;;7.10;6.40;;;20.00;71.00;;;;;;4993891;28;20029;-89
2021/07/11 03:00:54;;;;;;;8.73;6.70;;;19.90;71.30;;;;;;4994047;28;20092;-89
2021/07/11 03:03:22;;;;;;;7.50;5.93;;;19.90;71.40;;;;;;5010816;28;20046;-89
2021/07/11 03:05:47;;;;;;;7.50;6.32;;;19.90;71.30;;;;;;5012495;28;20109;-87
2021/07/11 03:08:13;;;;;;;7.93;6.72;;;19.90;71.30;;;;;;4994819;28;20177;-91
2021/07/11 03:10:39;;;;;;;7.28;6.40;;;19.90;71.50;;;;;;4994372;28;20557;-92
2021/07/11 03:13:06;;;;;;;8.13;5.68;;;19.90;71.50;;;;;;4993637;28;20022;-91
2021/07/11 03:15:32;;;;;;;7.68;5.80;;;19.90;71.50;;;;;;4994812;28;20018;-91
2021/07/11 03:17:59;;;;;;;7.50;6.60;;;19.90;71.50;;;;;;4997023;28;20054;-92
2021/07/11 03:20:26;;;;;;;7.97;6.90;;;19.90;71.70;;;;;;4994421;28;20045;-92
2021/07/11 03:22:54;;;;;;;7.20;6.20;;;19.90;71.70;;;;;;5008213;28;20030;-92
2021/07/11 03:25:20;;;;;;;7.82;6.05;;;19.90;71.70;;;;;;5012591;28;20029;-90
2021/07/11 03:27:47;;;;;;;7.82;6.28;;;19.90;71.50;;;;;;5013164;28;20026;-90
2021/07/11 03:30:17;;;;;;;7.68;6.32;;;19.90;71.60;;;;;;5013797;28;20485;-90
2021/07/11 03:32:56;;;;;;;7.70;6.40;;;20.00;71.60;;;;;;5012064;28;20507;-91
2021/07/11 03:35:28;;;;;;;7.50;6.35;;;20.00;71.60;;;;;;5012642;28;20026;-93
2021/07/11 03:37:56;;;;;;;7.10;5.65;;;20.00;71.60;;;;;;4996460;28;20055;-93
2021/07/11 03:40:26;;;;;;;6.00;5.03;;;20.00;71.70;;;;;;4994519;28;20026;-94
2021/07/11 03:42:54;;;;;;;6.57;5.38;;;19.90;71.80;;;;;;4993960;28;20034;-94
2021/07/11 03:45:21;;;;;;;6.45;4.88;;;19.90;71.90;;;;;;5011348;28;20026;-94
2021/07/11 03:47:56;;;;;;;6.93;5.60;;;19.80;72.00;;;;;;5011986;28;20026;-93
2021/07/11 03:50:25;;;;;;;7.57;5.60;;;19.80;72.20;;;;;;4993914;28;20109;-93
2021/07/11 03:52:57;;;;;;;5.80;5.10;;;19.70;72.40;;;;;;4992260;28;20026;-93
2021/07/11 03:55:23;;;;;;;5.75;4.75;;;19.70;72.60;;;;;;4992949;28;20032;-93
2021/07/11 03:57:50;;;;;;;6.45;5.65;;;19.60;72.60;;;;;;4993932;28;20482;-90
2021/07/11 04:00:18;;;;;;;6.82;5.53;;;19.60;72.60;;;;;;4993376;28;20114;-91
2021/07/11 04:02:49;;;;;;;7.32;5.75;;;19.60;72.70;;;;;;5004326;28;20049;-91
2021/07/11 04:05:17;;;;;;;6.93;5.90;;;19.60;72.80;;;;;;5013012;28;20033;-90
2021/07/11 04:07:45;;;;;;;8.23;5.82;;;19.60;72.70;;;;;;5012428;28;20037;-89
2021/07/11 04:10:12;;;;;;;8.32;6.85;;;19.60;72.80;;;;;;5013164;28;20025;-90
2021/07/11 04:12:37;;;;;;;8.60;6.55;;;19.60;72.90;;;;;;5001254;28;20040;-90
2021/07/11 04:15:04;;;;;;;6.82;5.72;;;19.60;73.00;;;;;;4993163;28;20022;-90
2021/07/11 04:17:32;;;;;;;6.93;5.68;;;19.50;73.00;;;;;;4993468;28;20023;-90
2021/07/11 04:20:01;;;;;;;8.25;6.22;;;19.60;73.10;;;;;;5012873;28;20500;-91
2021/07/11 04:22:27;;;;;;;6.15;5.30;;;19.60;73.20;;;;;;5012064;28;20030;-87
2021/07/11 04:24:54;;;;;;;9.00;6.82;;;19.50;73.20;;;;;;5011940;28;20370;-91
2021/07/11 04:27:21;;;;;;;8.23;6.60;;;19.60;73.40;;;;;;5013075;28;20022;-92
2021/07/11 04:29:50;;;;;;;7.65;6.47;;;19.50;73.50;;;;;;5013083;28;20022;-92
2021/07/11 04:32:16;;;;;;;6.78;5.35;;;19.50;73.70;;;;;;5005020;28;20033;-93
2021/07/11 04:34:42;;;;;;;8.35;5.75;;;19.40;73.70;;;;;;4993978;28;20466;-92
2021/07/11 04:37:08;;;;;;;7.60;6.43;;;19.40;73.70;;;;;;4993778;28;20113;-91
2021/07/11 04:39:34;;;;;;;7.75;6.70;;;19.50;73.80;;;;;;4996079;28;20049;-90
2021/07/11 04:42:01;;;;;;;7.93;6.72;;;19.50;73.90;;;;;;4995612;28;20034;-90
2021/07/11 04:44:31;;;;;;;7.60;5.97;;;19.40;74.10;;;;;;4995612;28;20121;-89
2021/07/11 04:46:57;;;;;;;7.75;6.63;;;19.40;74.10;;;;;;4996669;28;20023;-90
2021/07/11 04:49:24;;;;;;;9.02;7.47;;;19.40;74.10;;;;;;4996774;28;20509;-90
2021/07/11 04:51:51;;;;;;;7.18;6.28;;;19.40;75.00;;;;;;5004249;28;20117;-91
2021/07/11 04:54:16;;;;;;;8.55;6.90;;;19.40;74.30;;;;;;4996702;28;20038;-90
2021/07/11 04:56:42;;;;;;;7.90;6.72;;;19.40;74.30;;;;;;4996770;28;20018;-89
2021/07/11 04:59:08;;;;;;;7.97;6.75;;;19.40;74.20;;;;;;5006047;28;20033;-90
2021/07/11 05:01:34;;;;;;;8.57;6.72;;;19.40;74.20;;;;;;4999212;28;20044;-90
2021/07/11 05:04:00;;;;;;;9.07;7.13;;;19.50;74.20;;;;;;5014870;28;20076;-90
2021/07/11 05:06:26;;;;;;;8.35;6.28;;;19.50;74.10;;;;;;5016433;28;20021;-90
2021/07/11 05:08:51;;;;;;;8.07;6.88;;;19.50;74.10;;;;;;5016336;28;20029;-90
2021/07/11 05:11:17;;;;;;;7.47;6.68;;;19.60;74.20;;;;;;5015662;28;20025;-90
2021/07/11 05:13:43;;;;;;;8.60;7.70;;;19.60;74.20;;;;;;5014745;28;20024;-90
2021/07/11 05:16:09;;;;;;;9.48;6.97;;;19.60;74.20;;;;;;5016179;28;20037;-91
2021/07/11 05:18:34;;;;;;;9.43;7.53;;;19.60;74.10;;;;;;5014771;28;20116;-90
2021/07/11 05:21:00;;;;;;;8.45;7.03;;;19.60;74.10;;;;;;5003792;28;20077;-89
2021/07/11 05:23:25;;;;;;;9.85;7.20;;;19.60;74.20;;;;;;5012472;28;20041;-88
2021/07/11 05:25:52;;;;;;;7.60;6.40;;;19.70;74.20;;;;;;5014459;28;20014;-89
2021/07/11 05:28:18;;;;;;;7.72;6.50;;;19.70;74.10;;;;;;5013926;28;20101;-89
2021/07/11 05:30:44;;;;;;;7.40;6.63;;;19.80;74.00;;;;;;5015440;28;20101;-89
2021/07/11 05:33:10;;;;;;;10.20;8.25;;;19.80;73.90;;;;;;4998759;28;20023;-89
2021/07/11 05:35:36;;;;;;;7.13;6.30;;;19.80;74.20;;;;;;4995506;28;20026;-87
2021/07/11 05:38:01;;;;;;;8.25;6.25;;;19.80;74.10;;;;;;4995265;28;20053;-89
2021/07/11 05:40:27;;;;;;;7.72;6.43;;;19.90;74.00;;;;;;4995505;28;20023;-88
2021/07/11 05:42:53;;;;;;;8.50;7.47;;;19.90;74.10;;;;;;4995178;28;20089;-89
2021/07/11 05:45:19;;;;;;;10.93;9.55;;;19.90;74.10;;;;;;4995413;28;20022;-89
2021/07/11 05:47:46;;;;;;;10.23;8.55;;;20.00;74.40;;;;;;4995412;28;20029;-90
2021/07/11 05:50:13;;;;;;;11.30;10.10;;;20.00;74.50;;;;;;4993506;28;20385;-90
2021/07/11 05:52:38;;;;;;;11.88;10.55;;;19.90;74.90;;;;;;4994564;28;20033;-91
2021/07/11 05:55:04;;;;;;;10.02;8.60;;;19.90;75.10;;;;;;4994587;28;20026;-89
2021/07/11 05:57:31;;;;;;;11.73;9.80;;;19.90;75.30;;;;;;4995640;28;20018;-91
2021/07/11 05:59:56;;;;;;;10.82;8.85;;;19.90;75.40;;;;;;4994709;28;20393;-90
2021/07/11 06:02:23;;;;;;;13.23;11.82;;;20.00;75.40;;;;;;4995528;28;20027;-91
2021/07/11 06:04:48;;;;;;;9.68;8.05;;;20.00;75.80;;;;;;4995868;28;20041;-92
2021/07/11 06:07:14;;;;;;;8.98;7.57;;;20.20;75.30;;;;;;4998586;28;20018;-90
2021/07/11 06:09:40;;;;;;;8.48;6.72;;;20.40;74.80;;;;;;5015109;28;20022;-91
2021/07/11 06:12:06;;;;;;;8.65;7.38;;;20.60;74.10;;;;;;5004963;28;20031;-89
2021/07/11 06:14:32;;;;;;;9.40;7.35;;;20.70;73.60;;;;;;5012118;28;20097;-91
2021/07/11 06:16:58;;;;;;;11.73;8.90;;;20.80;73.50;;;;;;4994995;28;20057;-90
2021/07/11 06:19:23;;;;;;;10.60;8.90;;;20.90;73.30;;;;;;4994905;28;20059;-89
2021/07/11 06:21:49;;;;;;;10.20;7.82;;;20.90;73.40;;;;;;4994362;28;20026;-89
2021/07/11 06:24:15;;;;;;;10.05;8.90;;;20.90;73.40;;;;;;4994121;28;20507;-88
2021/07/11 06:26:41;;;;;;;9.15;8.02;;;20.90;73.60;;;;;;4993546;28;20038;-89
2021/07/11 06:29:07;;;;;;;8.50;6.47;;;20.70;73.90;;;;;;4994498;28;20026;-90
2021/07/11 06:31:32;;;;;;;10.60;9.18;;;20.70;74.10;;;;;;4998037;28;20037;-90
2021/07/11 06:33:58;;;;;;;9.50;8.48;;;20.60;74.30;;;;;;5013776;28;20361;-88
2021/07/11 06:36:25;;;;;;;9.05;7.78;;;20.80;74.20;;;;;;5014073;28;20083;-89
2021/07/11 06:38:51;;;;;;;9.68;8.50;;;20.80;74.00;;;;;;4994065;28;20109;-89
2021/07/11 06:41:16;;;;;;;8.43;7.20;;;21.00;73.80;;;;;;4995475;28;20112;-90
2021/07/11 06:43:42;;;;;;;9.23;8.23;;;21.10;73.60;;;;;;5013865;28;20038;-90
2021/07/11 06:46:09;;;;;;;8.63;7.25;;;21.20;73.40;;;;;;5013204;28;20085;-91
2021/07/11 06:48:35;;;;;;;10.73;9.13;;;21.20;73.30;;;;;;5013357;28;20045;-91
2021/07/11 06:51:01;;;;;;;11.15;9.82;;;21.30;73.40;;;;;;5013476;28;20568;-89
2021/07/11 06:53:26;;;;;;;13.70;11.80;;;21.50;73.10;;;;;;4993585;28;20038;-90
2021/07/11 06:55:52;;;;;;;12.52;10.18;;;21.60;72.90;;;;;;4996024;28;20022;-90
2021/07/11 06:58:18;;;;;;;9.13;7.93;;;21.60;72.90;;;;;;4994687;28;20097;-90
2021/07/11 07:00:43;;;;;;;9.57;7.50;;;21.80;72.50;;;;;;4992719;28;20062;-90
2021/07/11 07:03:09;;;;;;;11.80;9.95;;;21.90;72.20;;;;;;4993481;28;20062;-90
2021/07/11 07:05:35;;;;;;;10.57;9.25;;;22.10;71.90;;;;;;4992842;28;20015;-89
2021/07/11 07:08:00;;;;;;;11.20;8.93;;;22.20;71.60;;;;;;5007184;28;20026;-89
2021/07/11 07:10:28;;;;;;;12.90;10.82;;;22.50;71.40;;;;;;5012524;28;20014;-91
2021/07/11 07:12:54;;;;;;;10.15;8.32;;;22.60;71.20;;;;;;5013580;28;20065;-89
2021/07/11 07:15:19;;;;;;;14.27;12.20;;;22.70;70.90;;;;;;5012615;28;20054;-89
2021/07/11 07:17:45;;;;;;;10.85;9.40;;;22.80;70.30;;;;;;5022907;28;20048;-90
2021/07/11 07:20:12;;;;;;;10.75;8.93;;;22.80;70.20;;;;;;5010967;28;20509;-88
2021/07/11 07:22:37;;;;;;;9.10;7.97;;;23.00;70.00;;;;;;5011800;28;20037;-88
2021/07/11 07:25:09;;;;;;;13.40;11.40;;;23.20;70.30;;;;;;4997361;28;20030;-87
2021/07/11 07:27:34;;;;;;;8.80;6.70;;;23.40;69.00;;;;;;5006231;28;20045;-90
2021/07/11 07:30:00;;;;;;;9.10;7.97;;;23.50;68.60;;;;;;5012530;28;20523;-89
2021/07/11 07:32:26;;;;;;;16.13;14.25;;;23.80;68.10;;;;;;5011764;28;20025;-87
2021/07/11 07:34:51;;;;;;;13.43;11.57;;;23.80;66.60;;;;;;5011988;28;20058;-90
2021/07/11 07:37:17;;;;;;;12.68;10.48;;;23.60;67.00;;;;;;5011683;28;20030;-89
2021/07/11 07:39:42;;;;;;;11.80;9.95;;;23.50;67.10;;;;;;5011735;28;20030;-90
2021/07/11 07:42:08;;;;;;;15.23;12.88;;;23.30;67.20;;;;;;5012191;28;20049;-88
2021/07/11 07:44:34;;;;;;;11.38;9.60;;;23.00;67.50;;;;;;5012368;28;20447;-89
2021/07/11 07:47:00;;;;;;;9.65;8.23;;;22.90;68.10;;;;;;5014650;28;20024;-96
2021/07/11 07:49:26;;;;;;;16.98;14.55;;;22.80;68.50;;;;;;5014614;28;20085;-90
2021/07/11 07:51:52;;;;;;;12.45;10.68;;;22.70;68.40;;;;;;5011158;28;20030;-90
2021/07/11 07:54:17;;;;;;;10.15;8.60;;;22.60;68.60;;;;;;5012784;28;20067;-90
2021/07/11 07:56:43;;;;;;;10.77;9.13;;;22.50;68.90;;;;;;5012785;28;20105;-90
2021/07/11 07:59:09;;;;;;;10.68;9.43;;;22.50;69.20;;;;;;5011435;28;20026;-89
2021/07/11 08:01:35;;;;;;;7.47;5.88;;;22.50;69.50;;;;;;5012790;28;20067;-89
2021/07/11 08:04:03;;;;;;;11.27;9.32;;;22.40;69.60;;;;;;5007529;28;20034;-89
2021/07/11 08:06:29;;;;;;;10.10;8.82;;;22.40;69.70;;;;;;4991896;28;20402;-90
2021/07/11 08:08:55;;;;;;;9.70;8.40;;;22.30;69.80;;;;;;5008823;28;20092;-91
2021/07/11 08:11:20;;;;;;;9.90;8.20;;;22.30;70.00;;;;;;5012614;28;20628;-89
2021/07/11 08:13:46;;;;;;;8.55;7.53;;;22.30;70.10;;;;;;5010476;28;20077;-89
2021/07/11 08:16:11;;;;;;;10.55;8.18;;;22.20;70.00;;;;;;4996188;28;20073;-89
2021/07/11 08:18:37;;;;;;;10.55;8.43;;;22.20;70.10;;;;;;4992740;28;20049;-89
2021/07/11 08:21:03;;;;;;;11.77;9.88;;;22.10;70.20;;;;;;4993159;28;20668;-90
2021/07/11 08:23:29;;;;;;;15.07;12.73;;;22.10;70.50;;;;;;4992613;28;20081;-90
2021/07/11 08:25:54;;;;;;;12.73;10.45;;;21.90;70.50;;;;;;4995454;28;20482;-89
2021/07/11 08:28:20;;;;;;;11.23;10.02;;;21.80;70.60;;;;;;5012998;28;20465;-90
2021/07/11 08:30:46;;;;;;;11.00;9.80;;;21.70;71.10;;;;;;5012341;28;20059;-90
2021/07/11 08:33:12;;;;;;;9.98;8.63;;;21.60;71.30;;;;;;5007449;28;20050;-87
2021/07/11 08:35:38;;;;;;;10.80;8.77;;;21.50;71.50;;;;;;4996644;28;20117;-88
2021/07/11 08:38:03;;;;;;;11.63;9.43;;;21.40;71.60;;;;;;4991643;28;20110;-88
2021/07/11 08:40:33;;;;;;;10.52;9.13;;;21.30;71.70;;;;;;5010070;28;20022;-89
2021/07/11 08:43:01;;;;;;;11.63;8.98;;;21.30;72.00;;;;;;5009480;28;20061;-89
2021/07/11 08:45:26;;;;;;;12.20;9.88;;;21.30;72.00;;;;;;5010270;28;20026;-89
2021/07/11 08:47:52;;;;;;;10.05;8.52;;;21.30;72.20;;;;;;5012007;28;20127;-90
2021/07/11 08:50:18;;;;;;;8.73;7.53;;;21.20;72.30;;;;;;5010573;28;20036;-87
2021/07/11 08:52:46;;;;;;;9.95;7.63;;;21.20;72.40;;;;;;5000620;28;20389;-87
2021/07/11 08:55:21;;;;;;;9.32;7.43;;;21.20;72.70;;;;;;5010154;28;20032;-87
2021/07/11 08:57:54;;;;;;;9.35;7.90;;;21.20;73.40;;;;;;5022433;28;20470;-87
2021/07/11 09:00:29;;;;;;;9.68;8.68;;;21.10;73.10;;;;;;4997809;28;20049;-88
2021/07/11 09:02:55;;;;;;;9.35;8.38;;;21.10;73.20;;;;;;5004937;28;20076;-88
2021/07/11 09:05:28;;;;;;;13.27;11.25;;;21.10;73.00;;;;;;5010610;28;20096;-89
2021/07/11 09:07:59;;;;;;;10.48;8.65;;;21.10;73.20;;;;;;5010116;28;20503;-87
2021/07/11 09:10:37;;;;;;;9.63;8.18;;;21.10;73.90;;;;;;5008774;28;20022;-88
2021/07/11 09:13:13;;;;;;;6.75;5.93;;;21.20;73.20;;;;;;5003112;28;20041;-87
2021/07/11 09:15:42;;;;;;;11.30;9.50;;;21.30;73.00;;;;;;5006064;28;20109;-88
2021/07/11 09:18:08;;;;;;;10.32;8.40;;;21.30;72.90;;;;;;5010944;28;20041;-89
2021/07/11 09:20:52;;;;;;;10.60;8.60;;;21.40;72.80;;;;;;5010347;28;20026;-88
2021/07/11 09:23:17;;;;;;;10.45;9.07;;;21.50;73.00;;;;;;5010614;28;20033;-89
2021/07/11 09:25:43;;;;;;;10.18;7.60;;;21.60;72.70;;;;;;5013594;28;20116;-88
2021/07/11 09:28:12;;;;;;;9.23;8.07;;;21.80;72.60;;;;;;5014236;28;20038;-89
2021/07/11 09:30:40;;;;;;;10.13;8.10;;;21.90;72.20;;;;;;5014791;28;20038;-88
2021/07/11 09:33:17;;;;;;;12.68;10.02;;;22.10;72.00;;;;;;5012908;28;20478;-93
2021/07/11 09:35:44;;;;;;;9.85;6.93;;;22.20;71.80;;;;;;4996373;28;20026;-91
2021/07/11 09:38:12;;;;;;;11.10;8.98;;;22.40;71.60;;;;;;5009913;28;20032;-89
2021/07/11 09:40:39;;;;;;;9.88;8.50;;;22.60;71.40;;;;;;5005784;28;20084;-91
2021/07/11 09:43:13;;;;;;;10.80;9.18;;;22.70;70.90;;;;;;5007581;28;20121;-91
2021/07/11 09:45:43;;;;;;;11.60;9.85;;;23.00;70.50;;;;;;5014297;28;20117;-92
2021/07/11 09:48:13;;;;;;;11.13;8.10;;;23.00;70.10;;;;;;5015002;28;20092;-92
2021/07/11 09:50:38;;;;;;;9.00;7.78;;;23.10;70.10;;;;;;5014242;28;20028;-93
2021/07/11 09:53:06;;;;;;;9.27;7.90;;;23.20;70.10;;;;;;5010102;28;20034;-90
2021/07/11 09:55:34;;;;;;;11.52;9.73;;;23.30;69.90;;;;;;5012941;28;20018;-91
2021/07/11 09:58:05;;;;;;;11.60;9.50;;;23.60;69.60;;;;;;5014926;28;20124;-91
2021/07/11 10:00:35;;;;;;;11.38;9.80;;;23.70;69.20;;;;;;5013538;28;20018;-88
2021/07/11 10:03:03;;;;;;;9.00;6.55;;;23.70;69.00;;;;;;5013755;28;20044;-92
2021/07/11 10:05:30;;;;;;;9.43;7.68;;;23.50;69.00;;;;;;5015519;28;20033;-89
2021/07/11 10:07:56;;;;;;;11.45;9.00;;;23.40;69.50;;;;;;5013602;28;20026;-87
2021/07/11 10:10:25;;;;;;;10.13;8.25;;;23.30;69.60;;;;;;5013166;28;20025;-87
2021/07/11 10:12:51;;;;;;;9.50;8.15;;;23.30;69.80;;;;;;5013076;28;20029;-92
2021/07/11 10:15:19;;;;;;;11.20;9.52;;;23.20;69.60;;;;;;5014430;28;20025;-91
2021/07/11 10:17:47;;;;;;;9.55;8.07;;;23.30;69.70;;;;;;5014943;28;20029;-93
2021/07/11 10:20:18;;;;;;;11.15;9.93;;;23.50;69.50;;;;;;5010309;28;20069;-87
2021/07/11 10:22:50;;;;;;;9.40;7.68;;;23.70;69.30;;;;;;4997963;28;20033;-91
2021/07/11 10:25:18;;;;;;;14.23;11.27;;;23.80;69.00;;;;;;5010925;28;20049;-90
2021/07/11 10:27:44;;;;;;;11.95;9.77;;;23.90;68.30;;;;;;5013938;28;20065;-90
2021/07/11 10:30:11;;;;;;;10.40;8.68;;;23.90;68.00;;;;;;5013791;28;20021;-91
2021/07/11 10:32:37;;;;;;;9.73;8.35;;;23.90;67.80;;;;;;5006758;28;20639;-89
2021/07/11 10:35:18;;;;;;;10.00;8.23;;;23.90;67.70;;;;;;4992970;28;20018;-91
2021/07/11 10:37:48;;;;;;;11.05;9.25;;;23.80;67.60;;;;;;5010389;28;20030;-87
2021/07/11 10:40:18;;;;;;;8.02;7.00;;;23.80;67.60;;;;;;5008177;28;20088;-88
2021/07/11 10:42:44;;;;;;;11.07;9.52;;;23.90;67.60;;;;;;5011841;28;20065;-87
2021/07/11 10:45:12;;;;;;;9.68;8.25;;;24.10;67.20;;;;;;5011898;28;20030;-85
2021/07/11 10:47:40;;;;;;;8.52;7.30;;;24.30;66.70;;;;;;5008362;28;20030;-87
2021/07/11 10:50:28;;;;;;;11.95;9.68;;;24.50;66.20;;;;;;5009862;28;20149;-87
2021/07/11 10:52:56;;;;;;;8.13;6.53;;;24.50;65.90;;;;;;5013739;28;20496;-87
2021/07/11 10:55:22;;;;;;;10.52;8.52;;;24.40;65.90;;;;;;5016060;28;20049;-88
2021/07/11 10:57:47;;;;;;;9.70;7.53;;;24.30;65.90;;;;;;5016950;28;20057;-86
2021/07/11 11:00:29;;;;;;;8.48;7.35;;;24.20;66.10;;;;;;5019940;28;20561;-87
2021/07/11 11:02:55;;;;;;;9.18;8.05;;;24.10;66.20;;;;;;5018084;28;20037;-86
2021/07/11 11:05:24;;;;;;;11.25;8.82;;;24.10;66.50;;;;;;5012672;28;20022;-86
2021/07/11 11:08:08;;;;;;;8.75;7.43;;;24.10;66.30;;;;;;5009970;28;20570;-89
2021/07/11 11:10:35;;;;;;;11.35;8.73;;;24.00;66.20;;;;;;5012087;28;20036;-88
2021/07/11 11:13:08;;;;;;;8.82;7.60;;;24.00;66.20;;;;;;5007463;28;20021;-88
2021/07/11 11:15:40;;;;;;;11.68;9.00;;;24.10;66.20;;;;;;5012375;28;20107;-87
2021/07/11 11:18:25;;;;;;;12.63;9.90;;;24.40;65.70;;;;;;5011045;28;20022;-89
2021/07/11 11:20:53;;;;;;;10.50;8.88;;;24.50;64.60;;;;;;5010734;28;20548;-88
2021/07/11 11:23:19;;;;;;;10.25;8.48;;;24.60;63.90;;;;;;5006515;28;20041;-88
2021/07/11 11:25:46;;;;;;;9.27;7.40;;;24.80;63.70;;;;;;5011636;28;20018;-88
2021/07/11 11:28:12;;;;;;;9.05;7.32;;;25.10;63.30;;;;;;5012135;28;20029;-88
2021/07/11 11:30:40;;;;;;;8.70;7.32;;;25.30;62.90;;;;;;5012486;28;20033;-86
2021/07/11 11:33:07;;;;;;;8.13;6.70;;;25.40;62.10;;;;;;5010473;28;20068;-87
2021/07/11 11:35:35;;;;;;;8.95;7.05;;;25.50;61.20;;;;;;5004318;28;20026;-86
2021/07/11 11:38:05;;;;;;;8.00;6.20;;;25.60;61.00;;;;;;5002363;28;20042;-87
2021/07/11 11:40:33;;;;;;;7.88;6.40;;;25.70;61.00;;;;;;5003251;28;20040;-87
2021/07/11 11:43:04;;;;;;;6.53;5.88;;;25.90;60.50;;;;;;5010865;28;20026;-87
2021/07/11 11:45:32;;;;;;;7.53;6.20;;;26.00;60.20;;;;;;5010859;28;20053;-86
2021/07/11 11:48:11;;;;;;;8.85;7.40;;;26.20;59.70;;;;;;5003623;28;20036;-88
2021/07/11 11:50:39;;;;;;;7.50;5.97;;;26.30;59.50;;;;;;5004390;28;20038;-88
2021/07/11 11:53:11;;;;;;;8.15;6.65;;;26.20;59.30;;;;;;5009343;28;20505;-87
2021/07/11 11:55:45;;;;;;;8.18;6.55;;;26.10;59.20;;;;;;5010944;28;20056;-89
2021/07/11 11:58:12;;;;;;;7.57;5.75;;;26.10;59.40;;;;;;4991011;28;20014;-88
2021/07/11 12:00:38;;;;;;;7.07;5.82;;;26.30;59.30;;;;;;5004102;28;20045;-88
2021/07/11 12:03:07;;;;;;;8.07;6.03;;;26.50;58.90;;;;;;5008372;28;20093;-88
2021/07/11 12:05:35;;;;;;;10.63;8.25;;;26.70;58.60;;;;;;5025893;28;20150;-89
2021/07/11 12:08:02;;;;;;;7.03;6.10;;;26.70;57.90;;;;;;5006461;28;20773;-88
2021/07/11 12:10:28;;;;;;;9.68;8.68;;;26.70;58.00;;;;;;5002362;28;20538;-89
2021/07/11 12:12:55;;;;;;;8.80;7.72;;;26.60;56.40;;;;;;4998590;28;20150;-88
2021/07/11 12:15:33;;;;;;;6.55;5.50;;;26.30;55.70;;;;;;5007760;28;20033;-89
2021/07/11 12:18:07;;;;;;;8.75;7.07;;;26.20;56.20;;;;;;5008997;28;20029;-89
2021/07/11 12:20:37;;;;;;;5.70;5.10;;;26.20;55.70;;;;;;5011296;28;20026;-88
2021/07/11 12:23:10;;;;;;;4.30;3.90;;;26.30;56.60;;;;;;5008251;28;20048;-87
2021/07/11 12:25:38;;;;;;;5.18;4.68;;;26.30;55.90;;;;;;5010494;28;20469;-87
2021/07/11 12:28:05;;;;;;;4.47;3.60;;;26.40;55.50;;;;;;5008863;28;20038;-87
2021/07/11 12:30:41;;;;;;;8.30;7.38;;;26.40;55.60;;;;;;5009635;28;20028;-87
2021/07/11 12:33:07;;;;;;;7.32;5.90;;;26.20;54.30;;;;;;5000278;28;20041;-87
2021/07/11 12:35:45;;;;;;;4.82;4.32;;;26.10;54.50;;;;;;5010649;28;20026;-86
2021/07/11 12:38:12;;;;;;;4.25;3.55;;;26.00;54.90;;;;;;5008661;28;20026;-88
2021/07/11 12:40:38;;;;;;;4.40;3.97;;;26.20;55.20;;;;;;5009836;28;20037;-87
2021/07/11 12:43:08;;;;;;;5.65;4.13;;;26.20;55.00;;;;;;5001756;28;20043;-87
2021/07/11 12:45:36;;;;;;;5.50;4.40;;;26.10;54.30;;;;;;5009040;28;20491;-87
2021/07/11 12:48:03;;;;;;;6.43;5.30;;;26.10;54.20;;;;;;4997402;28;20378;-87